createdAt,value
2023-04-12T00:01:30.122Z,99984.38
2023-04-12T00:04:34.411Z,99980.16
2023-04-12T00:07:38.207Z,99971.22
2023-04-12T00:10:40.339Z,99963.47
2023-04-12T00:13:41.788Z,99960.09
2023-04-12T00:16:43.184Z,99963.03
2023-04-12T00:19:45.414Z,99958.50
2023-04-12T00:22:47.340Z,99953.44
2023-04-12T00:25:49.116Z,99957.47
2023-04-12T00:29:12.570Z,99964.84
2023-04-12T00:32:15.891Z,99952.00
2023-04-12T00:35:18.123Z,99945.41
2023-04-12T00:38:21.462Z,99958.75
2023-04-12T00:41:24.176Z,99952.06
2023-04-12T00:44:26.135Z,99952.06
2023-04-12T00:47:29.601Z,99947.03
2023-04-12T00:50:31.876Z,99949.72
2023-04-12T00:53:34.235Z,99951.50
2023-04-12T00:56:40.238Z,99940.97
2023-04-12T00:59:42.076Z,99937.72
2023-04-12T01:02:50.822Z,99935.78
2023-04-12T01:06:13.811Z,99927.06
2023-04-12T01:09:30.899Z,99934.44
2023-04-12T01:12:52.297Z,99923.91
2023-04-12T01:15:59.970Z,99911.22
2023-04-12T01:19:07.678Z,99913.59
2023-04-12T01:22:48.006Z,99909.13
2023-04-12T01:26:14.536Z,99902.34
2023-04-12T01:29:19.589Z,99897.22
2023-04-12T01:32:23.031Z,99888.41
2023-04-12T01:35:29.863Z,99887.41
2023-04-12T01:38:33.181Z,99875.63
2023-04-12T01:41:41.682Z,99874.47
2023-04-12T01:44:43.702Z,99865.50
2023-04-12T01:47:45.712Z,99865.94
2023-04-12T01:50:59.950Z,99863.97
2023-04-12T01:54:13.059Z,99852.56
2023-04-12T01:57:15.441Z,99844.97
2023-04-12T02:00:18.572Z,99834.34
2023-04-12T02:03:23.186Z,99833.56
2023-04-12T02:06:27.006Z,99821.28
2023-04-12T02:09:28.369Z,99825.72
2023-04-12T02:12:30.771Z,99827.34
2023-04-12T02:15:33.375Z,99821.47
2023-04-12T02:18:37.791Z,99811.13
2023-04-12T02:21:45.493Z,99803.75
2023-04-12T02:24:47.761Z,99789.00
2023-04-12T02:27:49.778Z,99790.97
2023-04-12T02:30:53.905Z,99777.16
2023-04-12T02:33:57.629Z,99776.34
2023-04-12T02:37:00.124Z,99777.81
2023-04-12T02:40:02.470Z,99769.16
2023-04-12T02:43:06.609Z,99759.50
2023-04-12T02:46:08.241Z,99754.22
2023-04-12T02:49:19.397Z,99743.84
2023-04-12T02:52:22.858Z,99738.44
2023-04-12T02:55:44.647Z,99727.03
2023-04-12T02:58:47.684Z,99721.19
2023-04-12T03:01:57.349Z,99722.06
2023-04-12T03:05:04.971Z,99716.84
2023-04-12T03:08:15.302Z,99713.31
2023-04-12T03:11:25.878Z,99705.81
2023-04-12T03:14:28.483Z,99692.81
2023-04-12T03:17:30.487Z,99693.91
2023-04-12T03:20:33.839Z,99677.25
2023-04-12T03:23:41.688Z,99673.72
2023-04-12T03:26:52.131Z,99673.97
2023-04-12T03:29:58.314Z,99667.75
2023-04-12T03:33:01.206Z,99666.28
2023-04-12T03:36:04.847Z,99660.88
2023-04-12T03:39:06.883Z,99661.19
2023-04-12T03:42:21.561Z,99645.47
2023-04-12T03:45:32.070Z,99641.78
2023-04-12T03:48:36.359Z,99628.59
2023-04-12T03:51:43.096Z,99621.50
2023-04-12T03:54:45.249Z,99613.78
2023-04-12T03:57:50.939Z,99614.97
2023-04-12T04:00:54.828Z,99600.88
2023-04-12T04:03:57.394Z,99592.97
2023-04-12T04:07:01.159Z,99584.91
2023-04-12T04:10:08.659Z,99590.34
2023-04-12T04:13:13.611Z,99582.84
2023-04-12T04:16:15.131Z,99570.75
2023-04-12T04:19:17.044Z,99567.78
2023-04-12T04:22:21.458Z,99565.16
2023-04-12T04:25:30.256Z,99555.88
2023-04-12T04:28:39.179Z,99546.75
2023-04-12T04:31:41.401Z,99531.81
2023-04-12T04:34:43.720Z,99533.59
2023-04-12T04:37:49.414Z,99525.78
2023-04-12T04:40:54.122Z,99521.81
2023-04-12T04:44:01.573Z,99522.63
2023-04-12T04:47:08.464Z,99522.41
2023-04-12T04:50:10.600Z,99518.00
2023-04-12T04:53:13.598Z,99513.00
2023-04-12T04:56:15.815Z,99507.91
2023-04-12T04:59:20.453Z,99509.88
2023-04-12T05:02:22.236Z,99511.50
2023-04-12T05:05:25.850Z,99508.00
2023-04-12T05:08:34.857Z,99511.44
2023-04-12T05:11:37.288Z,99513.00
2023-04-12T05:14:48.073Z,99503.09
2023-04-12T05:17:53.565Z,99504.09
2023-04-12T05:20:54.986Z,99492.50
2023-04-12T05:23:56.756Z,99500.25
2023-04-12T05:26:58.878Z,99492.38
2023-04-12T05:30:00.844Z,99485.53
2023-04-12T05:33:24.333Z,99483.72
2023-04-12T05:36:26.241Z,99474.47
2023-04-12T05:39:28.096Z,99463.09
2023-04-12T05:42:30.019Z,99457.78
2023-04-12T05:45:33.396Z,99455.03
2023-04-12T05:48:35.153Z,99451.22
2023-04-12T05:51:41.377Z,99421.38
2023-04-12T05:54:49.235Z,99427.34
2023-04-12T05:57:52.589Z,99414.38
2023-04-12T06:00:56.089Z,99421.25
2023-04-12T06:03:59.349Z,99405.59
2023-04-12T06:07:03.063Z,99395.66
2023-04-12T06:10:05.120Z,99386.25
2023-04-12T06:13:07.285Z,99376.59
2023-04-12T06:16:14.977Z,99368.63
2023-04-12T06:19:20.315Z,99362.38
2023-04-12T06:22:25.143Z,99358.97
2023-04-12T06:25:48.989Z,99359.84
2023-04-12T06:28:51.323Z,99350.88
2023-04-12T06:31:53.811Z,99354.00
2023-04-12T06:34:56.643Z,99343.69
2023-04-12T06:37:58.481Z,99339.69
2023-04-12T06:41:00.617Z,99332.53
2023-04-12T06:44:04.319Z,99330.13
2023-04-12T06:47:06.252Z,99326.53
2023-04-12T06:50:08.836Z,99316.88
2023-04-12T06:53:13.298Z,99315.03
2023-04-12T06:56:17.236Z,99316.59
2023-04-12T06:59:20.440Z,99306.06
2023-04-12T07:02:22.548Z,99302.69
2023-04-12T07:05:24.671Z,99283.31
2023-04-12T07:08:28.673Z,99288.44
2023-04-12T07:11:31.781Z,99300.41
2023-04-12T07:14:34.371Z,99291.41
2023-04-12T07:17:36.447Z,99285.88
2023-04-12T07:20:37.990Z,99276.25
2023-04-12T07:23:40.936Z,99271.63
2023-04-12T07:27:01.273Z,99254.91
2023-04-12T07:30:03.542Z,99252.44
2023-04-12T07:33:18.608Z,99244.31
2023-04-12T07:36:21.979Z,99235.88
2023-04-12T07:39:25.465Z,99234.56
2023-04-12T07:42:26.885Z,99226.59
2023-04-12T07:45:29.590Z,99214.22
2023-04-12T07:48:31.176Z,99205.53
2023-04-12T07:51:33.450Z,99197.63
2023-04-12T07:54:35.436Z,99193.16
2023-04-12T07:57:37.174Z,99194.41
2023-04-12T08:00:38.890Z,99189.44
2023-04-12T08:03:41.760Z,99182.34
2023-04-12T08:06:44.460Z,99187.59
2023-04-12T08:09:47.071Z,99183.81
2023-04-12T08:12:52.587Z,99177.50
2023-04-12T08:15:54.742Z,99171.78
2023-04-12T08:18:56.721Z,99161.16
2023-04-12T08:21:59.251Z,99171.38
2023-04-12T08:25:01.303Z,99178.09
2023-04-12T08:28:03.889Z,99172.81
2023-04-12T08:31:08.815Z,99151.09
2023-04-12T08:34:10.696Z,99151.69
2023-04-12T08:37:12.529Z,99141.53
2023-04-12T08:40:14.426Z,99141.56
2023-04-12T08:43:18.079Z,99140.19
2023-04-12T08:46:20.408Z,99148.72
2023-04-12T08:49:24.887Z,99144.09
2023-04-12T08:52:26.999Z,99150.22
2023-04-12T08:55:29.525Z,99146.56
2023-04-12T08:58:31.693Z,99153.63
2023-04-12T09:01:34.022Z,99140.00
2023-04-12T09:04:53.231Z,99142.22
2023-04-12T09:07:54.766Z,99132.88
2023-04-12T09:10:56.582Z,99149.88
2023-04-12T09:14:25.922Z,99136.34
2023-04-12T09:17:28.443Z,99124.66
2023-04-12T09:20:31.030Z,99124.00
2023-04-12T09:23:32.556Z,99121.19
2023-04-12T09:26:35.898Z,99111.72
2023-04-12T09:29:38.090Z,99117.94
2023-04-12T09:32:41.260Z,99120.91
2023-04-12T09:35:43.655Z,99110.00
2023-04-12T09:39:01.064Z,99101.28
2023-04-12T09:42:05.459Z,99104.97
2023-04-12T09:45:25.403Z,99085.44
2023-04-12T09:48:28.723Z,99081.28
2023-04-12T09:51:33.043Z,99082.22
2023-04-12T09:54:40.936Z,99080.00
2023-04-12T09:57:44.110Z,99079.84
2023-04-12T10:00:47.435Z,99080.00
2023-04-12T10:03:49.944Z,99069.19
2023-04-12T10:06:53.401Z,99065.28
2023-04-12T10:09:59.371Z,99056.22
2023-04-12T10:13:05.787Z,99059.66
2023-04-12T10:16:09.933Z,99063.69
2023-04-12T10:19:14.313Z,99045.50
2023-04-12T10:22:17.415Z,99045.50
2023-04-12T10:25:25.064Z,99043.44
2023-04-12T10:28:27.042Z,99035.88
2023-04-12T10:31:30.733Z,99042.66
2023-04-12T10:34:33.174Z,99042.09
2023-04-12T10:38:02.557Z,99028.03
2023-04-12T10:41:15.252Z,99028.44
2023-04-12T10:44:26.695Z,99017.34
2023-04-12T10:47:52.842Z,99021.91
2023-04-12T10:51:17.997Z,99022.75
2023-04-12T10:54:19.826Z,99022.56
2023-04-12T10:57:42.421Z,99023.41
2023-04-12T11:00:56.983Z,99014.63
2023-04-12T11:04:17.389Z,99010.34
2023-04-12T11:07:40.607Z,99012.78
2023-04-12T11:11:22.587Z,99008.81
2023-04-12T11:14:29.468Z,99001.59
2023-04-12T11:17:31.055Z,98998.22
2023-04-12T11:20:34.200Z,98991.94
2023-04-12T11:23:37.819Z,98980.94
2023-04-12T11:26:39.804Z,98981.31
2023-04-12T11:29:43.174Z,98990.28
2023-04-12T11:32:46.475Z,98980.53
2023-04-12T11:35:48.011Z,98983.75
2023-04-12T11:38:50.293Z,98983.81
2023-04-12T11:41:52.136Z,98975.34
2023-04-12T11:45:01.357Z,98974.72
2023-04-12T11:48:28.060Z,98970.28
2023-04-12T11:51:32.480Z,98973.69
2023-04-12T11:54:35.333Z,98965.44
2023-04-12T11:57:38.544Z,98965.31
2023-04-12T12:00:42.216Z,98965.75
2023-04-12T12:03:44.212Z,98950.47
2023-04-12T12:06:47.086Z,98935.88
2023-04-12T12:09:50.479Z,98948.16
2023-04-12T12:12:57.017Z,98943.72
2023-04-12T12:15:58.982Z,98940.38
2023-04-12T12:19:04.114Z,98940.09
2023-04-12T12:22:19.908Z,98929.09
2023-04-12T12:25:23.420Z,98921.41
2023-04-12T12:28:25.248Z,98933.75
2023-04-12T12:31:28.863Z,98953.06
2023-04-12T12:34:34.289Z,98935.28
2023-04-12T12:37:36.722Z,98930.41
2023-04-12T12:40:39.842Z,98926.28
2023-04-12T12:43:52.257Z,98930.22
2023-04-12T12:46:58.730Z,98919.72
2023-04-12T12:50:09.859Z,98911.16
2023-04-12T12:53:11.721Z,98914.56
2023-04-12T12:56:14.717Z,98905.25
2023-04-12T12:59:16.679Z,98912.84
2023-04-12T13:02:21.199Z,98906.47
2023-04-12T13:05:23.326Z,98898.41
2023-04-12T13:08:26.030Z,98897.53
2023-04-12T13:11:28.094Z,98889.16
2023-04-12T13:14:30.430Z,98881.03
2023-04-12T13:17:32.516Z,98869.97
2023-04-12T13:20:34.465Z,98872.16
2023-04-12T13:23:36.521Z,98876.00
2023-04-12T13:26:38.414Z,98887.91
2023-04-12T13:29:40.877Z,98894.56
2023-04-12T13:32:44.523Z,98896.47
2023-04-12T13:35:46.445Z,98887.94
2023-04-12T13:38:48.345Z,98888.94
2023-04-12T13:41:51.643Z,98882.28
2023-04-12T13:44:53.035Z,98884.69
2023-04-12T13:47:55.053Z,98884.50
2023-04-12T13:50:57.216Z,98887.91
2023-04-12T13:53:59.121Z,98877.22
2023-04-12T13:57:02.098Z,98893.22
2023-04-12T14:00:03.914Z,98883.47
2023-04-12T14:03:06.484Z,98886.72
2023-04-12T14:06:09.419Z,98902.31
2023-04-12T14:09:29.521Z,98893.41
2023-04-12T14:12:31.449Z,98894.03
2023-04-12T14:15:33.263Z,98922.84
2023-04-12T14:18:34.811Z,98924.19
2023-04-12T14:21:37.603Z,98943.06
2023-04-12T14:24:40.025Z,98936.25
2023-04-12T14:27:42.090Z,98933.13
2023-04-12T14:30:44.230Z,98916.84
2023-04-12T14:33:47.072Z,98928.88
2023-04-12T14:36:49.045Z,98936.09
2023-04-12T14:39:53.522Z,98936.56
2023-04-12T14:42:55.393Z,98933.25
2023-04-12T14:45:57.186Z,98938.53
2023-04-12T14:49:01.045Z,98938.28
2023-04-12T14:52:02.867Z,98941.00
2023-04-12T14:55:05.790Z,98931.28
2023-04-12T14:58:08.011Z,98940.81
2023-04-12T15:01:11.993Z,98956.63
2023-04-12T15:04:14.121Z,98965.31
2023-04-12T15:07:16.478Z,98961.34
2023-04-12T15:10:19.820Z,98951.56
2023-04-12T15:13:24.404Z,98942.72
2023-04-12T15:16:29.148Z,98961.34
2023-04-12T15:19:31.509Z,98976.25
2023-04-12T15:22:37.611Z,98973.63
2023-04-12T15:25:39.247Z,98993.59
2023-04-12T15:28:40.836Z,98994.75
2023-04-12T15:31:43.685Z,99007.19
2023-04-12T15:34:46.146Z,99011.06
2023-04-12T15:37:48.021Z,98995.50
2023-04-12T15:41:10.551Z,98998.16
2023-04-12T15:44:13.211Z,99002.50
2023-04-12T15:47:15.273Z,98996.81
2023-04-12T15:50:19.238Z,98998.69
2023-04-12T15:53:25.517Z,98982.41
2023-04-12T15:56:32.392Z,98998.97
2023-04-12T15:59:33.855Z,98990.28
2023-04-12T16:02:35.407Z,98988.13
2023-04-12T16:05:37.402Z,98975.16
2023-04-12T16:08:39.088Z,98983.34
2023-04-12T16:11:41.201Z,98990.31
2023-04-12T16:14:43.216Z,98984.00
2023-04-12T16:17:49.330Z,98988.66
2023-04-12T16:20:52.463Z,98991.34
2023-04-12T16:23:54.031Z,98984.94
2023-04-12T16:26:56.065Z,98971.56
2023-04-12T16:29:58.079Z,98973.59
2023-04-12T16:32:59.926Z,98977.94
2023-04-12T16:36:02.522Z,98978.22
2023-04-12T16:39:06.164Z,98967.34
2023-04-12T16:42:08.288Z,98961.84
2023-04-12T16:45:12.020Z,98972.72
2023-04-12T16:48:16.443Z,98975.25
2023-04-12T16:51:18.314Z,98981.31
2023-04-12T16:54:19.731Z,98977.53
2023-04-12T16:57:21.599Z,98968.06
2023-04-12T17:00:25.193Z,98964.31
2023-04-12T17:03:27.395Z,98966.84
2023-04-12T17:06:30.192Z,98961.28
2023-04-12T17:09:32.084Z,98968.03
2023-04-12T17:12:34.653Z,98986.19
2023-04-12T17:15:36.435Z,99000.06
2023-04-12T17:18:40.197Z,99000.09
2023-04-12T17:21:42.257Z,99000.88
2023-04-12T17:24:44.119Z,99021.56
2023-04-12T17:27:46.137Z,99027.06
2023-04-12T17:30:48.218Z,99031.22
2023-04-12T17:33:50.082Z,99037.38
2023-04-12T17:36:55.046Z,99022.94
2023-04-12T17:39:57.446Z,99018.59
2023-04-12T17:42:59.230Z,99017.72
2023-04-12T17:46:03.503Z,99011.34
2023-04-12T17:49:06.973Z,99016.88
2023-04-12T17:52:09.031Z,99009.03
2023-04-12T17:55:12.306Z,99010.03
2023-04-12T17:58:15.061Z,99007.38
2023-04-12T18:01:17.021Z,99009.06
2023-04-12T18:04:18.520Z,99001.44
2023-04-12T18:07:20.700Z,98999.19
2023-04-12T18:10:23.213Z,99003.63
2023-04-12T18:13:25.533Z,99009.28
2023-04-12T18:16:28.058Z,99007.31
2023-04-12T18:19:30.093Z,99001.34
2023-04-12T18:22:31.490Z,98999.94
2023-04-12T18:25:32.901Z,99000.03
2023-04-12T18:28:34.756Z,99019.38
2023-04-12T18:31:38.604Z,99023.81
2023-04-12T18:34:40.772Z,99026.81
2023-04-12T18:37:43.489Z,99032.47
2023-04-12T18:40:45.003Z,99047.84
2023-04-12T18:43:46.721Z,99062.84
2023-04-12T18:46:48.608Z,99080.09
2023-04-12T18:49:50.372Z,99082.56
2023-04-12T18:52:51.784Z,99075.56
2023-04-12T18:55:53.628Z,99074.81
2023-04-12T18:58:56.726Z,99083.59
2023-04-12T19:01:58.484Z,99095.16
2023-04-12T19:05:00.199Z,99104.88
2023-04-12T19:08:01.909Z,99111.66
2023-04-12T19:11:04.570Z,99116.13
2023-04-12T19:14:07.447Z,99119.84
2023-04-12T19:17:09.376Z,99123.28
2023-04-12T19:20:11.283Z,99116.28
2023-04-12T19:23:13.660Z,99140.47
2023-04-12T19:26:16.961Z,99145.91
2023-04-12T19:29:19.614Z,99158.88
2023-04-12T19:32:22.372Z,99150.22
2023-04-12T19:35:23.999Z,99165.78
2023-04-12T19:38:25.696Z,99178.88
2023-04-12T19:41:28.296Z,99176.78
2023-04-12T19:44:30.409Z,99177.78
2023-04-12T19:47:32.866Z,99175.06
2023-04-12T19:50:36.016Z,99169.78
2023-04-12T19:53:37.769Z,99169.13
2023-04-12T19:56:39.433Z,99166.63
2023-04-12T19:59:41.089Z,99167.41
2023-04-12T20:02:43.031Z,99184.44
2023-04-12T20:05:45.915Z,99187.41
2023-04-12T20:08:47.640Z,99186.63
2023-04-12T20:11:49.550Z,99185.53
2023-04-12T20:14:51.895Z,99201.25
2023-04-12T20:17:54.206Z,99212.94
2023-04-12T20:20:57.843Z,99217.47
2023-04-12T20:24:00.437Z,99219.31
2023-04-12T20:27:02.237Z,99220.34
2023-04-12T20:30:05.314Z,99220.34
2023-04-12T20:33:08.406Z,99224.75
2023-04-12T20:36:10.656Z,99229.69
2023-04-12T20:39:12.661Z,99234.13
2023-04-12T20:42:16.389Z,99238.72
2023-04-12T20:45:18.769Z,99242.47
2023-04-12T20:48:20.632Z,99245.09
2023-04-12T20:51:22.451Z,99250.59
2023-04-12T20:54:25.680Z,99260.41
2023-04-12T20:57:27.469Z,99267.16
2023-04-12T21:00:29.734Z,99267.91
2023-04-12T21:03:32.434Z,99274.16
2023-04-12T21:06:34.409Z,99269.66
2023-04-12T21:09:36.719Z,99272.28
2023-04-12T21:12:39.772Z,99277.56
2023-04-12T21:15:43.239Z,99282.84
2023-04-12T21:18:44.944Z,99285.22
2023-04-12T21:21:46.783Z,99284.88
2023-04-12T21:24:48.825Z,99290.31
2023-04-12T21:27:50.652Z,99295.56
2023-04-12T21:30:55.245Z,99288.59
2023-04-12T21:33:59.208Z,99282.00
2023-04-12T21:37:02.081Z,99284.09
2023-04-12T21:40:12.402Z,99292.25
2023-04-12T21:43:14.000Z,99296.81
2023-04-12T21:46:15.520Z,99294.31
2023-04-12T21:49:17.722Z,99294.97
2023-04-12T21:52:19.380Z,99307.19
2023-04-12T21:55:21.570Z,99319.59
2023-04-12T21:58:23.048Z,99321.44
2023-04-12T22:01:24.784Z,99326.59
2023-04-12T22:04:27.074Z,99333.22
2023-04-12T22:07:28.738Z,99338.50
2023-04-12T22:10:34.274Z,99337.44
2023-04-12T22:13:41.244Z,99334.38
2023-04-12T22:16:42.935Z,99329.50
2023-04-12T22:19:45.101Z,99341.09
2023-04-12T22:22:46.769Z,99346.28
2023-04-12T22:25:49.717Z,99332.50
2023-04-12T22:28:51.111Z,99348.28
2023-04-12T22:31:53.047Z,99344.91
2023-04-12T22:35:05.209Z,99343.47
2023-04-12T22:38:12.272Z,99343.75
2023-04-12T22:41:17.425Z,99347.47
2023-04-12T22:44:22.984Z,99335.28
2023-04-12T22:47:26.274Z,99346.19
2023-04-12T22:50:28.000Z,99340.50
2023-04-12T22:53:33.079Z,99343.06
2023-04-12T22:56:41.934Z,99355.59
2023-04-12T22:59:43.977Z,99345.75
2023-04-12T23:02:46.381Z,99346.63
2023-04-12T23:05:50.127Z,99356.97
2023-04-12T23:08:52.034Z,99350.22
2023-04-12T23:11:53.684Z,99346.88
2023-04-12T23:14:55.510Z,99336.25
2023-04-12T23:17:57.353Z,99342.47
2023-04-12T23:21:00.823Z,99345.97
2023-04-12T23:24:02.746Z,99349.75
2023-04-12T23:27:04.433Z,99348.19
2023-04-12T23:30:06.708Z,99348.47
2023-04-12T23:33:09.367Z,99347.59
2023-04-12T23:36:11.921Z,99343.53
2023-04-12T23:39:13.564Z,99334.72
2023-04-12T23:42:15.316Z,99340.03
2023-04-12T23:45:17.082Z,99336.50
2023-04-12T23:48:19.469Z,99328.41
2023-04-12T23:51:21.932Z,99329.31
2023-04-12T23:54:24.153Z,99322.50
2023-04-12T23:57:26.100Z,99321.56
